Time,TemperatureF,DewpointF,PressureIn,WindDirection,WindDirectionDegrees,WindSpeedMPH,WindSpeedGustMPH,Humidity,HourlyPrecipIn,Conditions,Clouds,dailyrainin,SoftwareType,DateUTC
2013-03-09 00:02:00,65.0,48.0,30.15,NNW,332,12.0,18.0,55,-99.99,,,-99.99,,2013-03-09 05:02:00,
2013-03-09 00:12:00,65.0,48.0,30.15,NNW,332,12.0,18.0,55,-99.99,,,-99.99,,2013-03-09 05:12:00,
2013-03-09 00:22:00,66.0,50.0,30.14,NNW,335,10.0,14.0,56,-99.99,,,-99.99,,2013-03-09 05:22:00,
2013-03-09 00:32:00,65.0,50.0,30.14,NNW,346,11.0,15.0,59,-99.99,,,-99.99,,2013-03-09 05:32:00,
2013-03-09 00:43:00,65.0,50.0,30.14,NNW,346,11.0,15.0,59,-99.99,,,-99.99,,2013-03-09 05:43:00,
2013-03-09 00:53:00,66.0,52.0,30.14,NW,323,10.0,14.0,60,-99.99,,,-99.99,,2013-03-09 05:53:00,
2013-03-09 01:02:00,66.0,52.0,30.15,NNW,328,9.0,14.0,61,-99.99,,,-99.99,,2013-03-09 06:02:00,
2013-03-09 01:11:00,65.0,52.0,30.14,NNW,340,5.0,12.0,62,-99.99,,,-99.99,,2013-03-09 06:11:00,
2013-03-09 01:22:00,65.0,52.0,30.14,NNW,340,5.0,12.0,62,-99.99,,,-99.99,,2013-03-09 06:22:00,
2013-03-09 01:32:00,66.0,53.0,30.14,NNW,340,8.0,14.0,62,-99.99,,,-99.99,,2013-03-09 06:32:00,
2013-03-09 01:42:00,66.0,53.0,30.14,NNW,340,8.0,14.0,62,-99.99,,,-99.99,,2013-03-09 06:42:00,
2013-03-09 01:52:00,66.0,52.0,30.14,NNW,339,9.0,15.0,61,-99.99,,,-99.99,,2013-03-09 06:52:00,
2013-03-09 02:01:00,66.0,53.0,30.14,NNW,338,8.0,15.0,62,-99.99,,,-99.99,,2013-03-09 07:01:00,
2013-03-09 02:11:00,66.0,53.0,30.14,NNW,338,8.0,15.0,62,-99.99,,,-99.99,,2013-03-09 07:11:00,
2013-03-09 02:21:00,65.0,52.0,30.14,NNW,332,9.0,14.0,63,-99.99,,,-99.99,,2013-03-09 07:21:00,
2013-03-09 02:32:00,65.0,53.0,30.13,NNW,333,9.0,14.0,64,-99.99,,,-99.99,,2013-03-09 07:32:00,
2013-03-09 02:42:00,65.0,53.0,30.13,NNW,333,9.0,14.0,64,-99.99,,,-99.99,,2013-03-09 07:42:00,
2013-03-09 02:52:00,65.0,53.0,30.13,NW,321,7.0,12.0,66,-99.99,,,-99.99,,2013-03-09 07:52:00,
2013-03-09 03:01:00,65.0,53.0,30.12,North,349,8.0,14.0,66,-99.99,,,-99.99,,2013-03-09 08:01:00,
2013-03-09 03:11:00,65.0,53.0,30.12,North,349,8.0,14.0,66,-99.99,,,-99.99,,2013-03-09 08:11:00,
2013-03-09 03:22:00,65.0,53.0,30.11,NNW,338,9.0,16.0,66,-99.99,,,-99.99,,2013-03-09 08:22:00,
2013-03-09 03:32:00,65.0,53.0,30.10,North,3,10.0,15.0,65,-99.99,,,-99.99,,2013-03-09 08:32:00,
2013-03-09 03:42:00,65.0,53.0,30.10,North,3,10.0,15.0,65,-99.99,,,-99.99,,2013-03-09 08:42:00,
2013-03-09 03:52:00,66.0,53.0,30.10,NNW,333,8.0,13.0,64,-99.99,,,-99.99,,2013-03-09 08:52:00,
2013-03-09 04:02:00,65.0,53.0,30.10,NNW,333,11.0,19.0,65,-99.99,,,-99.99,,2013-03-09 09:02:00,
2013-03-09 04:12:00,65.0,53.0,30.10,NNW,333,11.0,19.0,65,-99.99,,,-99.99,,2013-03-09 09:12:00,
2013-03-09 04:21:00,64.0,52.0,30.10,NW,326,10.0,16.0,64,-99.99,,,-99.99,,2013-03-09 09:21:00,
2013-03-09 04:32:00,64.0,50.0,30.11,NNW,329,16.0,21.0,61,-99.99,,,-99.99,,2013-03-09 09:32:00,
2013-03-09 04:42:00,64.0,50.0,30.11,NNW,329,16.0,21.0,61,-99.99,,,-99.99,,2013-03-09 09:42:00,
2013-03-09 04:52:00,64.0,49.0,30.11,NNW,330,18.0,22.0,58,-99.99,,,-99.99,,2013-03-09 09:52:00,
2013-03-09 05:01:00,65.0,50.0,30.10,NNW,342,11.0,18.0,59,-99.99,,,-99.99,,2013-03-09 10:01:00,
2013-03-09 05:11:00,65.0,50.0,30.10,NNW,342,11.0,18.0,59,-99.99,,,-99.99,,2013-03-09 10:11:00,
2013-03-09 05:21:00,65.0,50.0,30.10,North,349,10.0,15.0,59,-99.99,,,-99.99,,2013-03-09 10:21:00,
2013-03-09 05:32:00,64.0,50.0,30.11,NNW,335,10.0,17.0,61,-99.99,,,-99.99,,2013-03-09 10:32:00,
2013-03-09 05:42:00,64.0,50.0,30.11,NNW,335,10.0,17.0,61,-99.99,,,-99.99,,2013-03-09 10:42:00,
2013-03-09 05:52:00,64.0,50.0,30.11,NNW,336,13.0,19.0,61,-99.99,,,-99.99,,2013-03-09 10:52:00,
2013-03-09 06:01:00,64.0,51.0,30.12,NW,323,16.0,19.0,63,-99.99,,,-99.99,,2013-03-09 11:01:00,
2013-03-09 06:11:00,64.0,51.0,30.12,NW,323,16.0,19.0,63,-99.99,,,-99.99,,2013-03-09 11:11:00,
2013-03-09 06:21:00,63.0,50.0,30.12,NNW,328,16.0,20.0,63,-99.99,,,-99.99,,2013-03-09 11:21:00,
2013-03-09 06:32:00,61.0,50.0,30.12,NW,312,14.0,17.0,68,-99.99,,,-99.99,,2013-03-09 11:32:00,
2013-03-09 06:42:00,61.0,50.0,30.12,NW,312,14.0,17.0,68,-99.99,,,-99.99,,2013-03-09 11:42:00,
2013-03-09 06:52:00,61.0,51.0,30.12,NW,309,15.0,19.0,70,-99.99,,,-99.99,,2013-03-09 11:52:00,
2013-03-09 07:02:00,60.0,51.0,30.13,NW,309,18.0,21.0,72,-99.99,,,-99.99,,2013-03-09 12:02:00,
2013-03-09 07:11:00,60.0,51.0,30.13,NW,309,18.0,21.0,72,-99.99,,,-99.99,,2013-03-09 12:11:00,
2013-03-09 07:21:00,60.0,51.0,30.14,WNW,302,18.0,20.0,73,-99.99,,,-99.99,,2013-03-09 12:21:00,
2013-03-09 07:32:00,60.0,52.0,30.14,NW,307,17.0,20.0,74,-99.99,,,-99.99,,2013-03-09 12:32:00,
2013-03-09 07:42:00,60.0,52.0,30.14,NW,307,17.0,20.0,74,-99.99,,,-99.99,,2013-03-09 12:42:00,
2013-03-09 07:52:00,61.0,52.0,30.14,NW,312,19.0,22.0,71,-99.99,,,-99.99,,2013-03-09 12:52:00,
2013-03-09 08:02:00,61.0,52.0,30.15,NW,308,17.0,20.0,72,-99.99,,,-99.99,,2013-03-09 13:02:00,
2013-03-09 08:11:00,61.0,52.0,30.15,NW,308,17.0,20.0,72,-99.99,,,-99.99,,2013-03-09 13:11:00,
2013-03-09 08:21:00,61.0,52.0,30.16,NW,315,16.0,20.0,71,-99.99,,,-99.99,,2013-03-09 13:21:00,
2013-03-09 08:32:00,63.0,52.0,30.16,NW,315,18.0,22.0,68,-99.99,,,-99.99,,2013-03-09 13:32:00,
2013-03-09 08:42:00,63.0,52.0,30.16,NW,315,18.0,22.0,68,-99.99,,,-99.99,,2013-03-09 13:42:00,
2013-03-09 08:52:00,61.0,52.0,30.17,NW,312,17.0,20.0,71,-99.99,,,-99.99,,2013-03-09 13:52:00,
2013-03-09 09:01:00,64.0,52.0,30.17,NNW,333,19.0,22.0,64,-99.99,,,-99.99,,2013-03-09 14:01:00,
2013-03-09 09:11:00,64.0,52.0,30.17,NNW,333,19.0,22.0,64,-99.99,,,-99.99,,2013-03-09 14:11:00,
2013-03-09 09:21:00,65.0,52.0,30.17,NW,326,16.0,21.0,63,-99.99,,,-99.99,,2013-03-09 14:21:00,
2013-03-09 09:32:00,67.0,54.0,30.17,NW,312,12.0,16.0,64,-99.99,,,-99.99,,2013-03-09 14:32:00,
2013-03-09 09:42:00,67.0,54.0,30.17,NW,312,12.0,16.0,64,-99.99,,,-99.99,,2013-03-09 14:42:00,
2013-03-09 09:52:00,68.0,55.0,30.18,NNW,332,8.0,13.0,64,-99.99,,,-99.99,,2013-03-09 14:52:00,
2013-03-09 10:02:00,69.0,55.0,30.18,North,350,4.0,7.0,62,-99.99,,,-99.99,,2013-03-09 15:02:00,
2013-03-09 10:12:00,69.0,55.0,30.18,North,350,4.0,7.0,62,-99.99,,,-99.99,,2013-03-09 15:12:00,
2013-03-09 10:22:00,70.0,57.0,30.18,NW,326,6.0,12.0,63,-99.99,,,-99.99,,2013-03-09 15:22:00,
2013-03-09 10:32:00,70.0,57.0,30.19,NNW,340,4.0,11.0,64,-99.99,,,-99.99,,2013-03-09 15:32:00,
2013-03-09 10:42:00,70.0,57.0,30.19,NNW,340,4.0,11.0,64,-99.99,,,-99.99,,2013-03-09 15:42:00,
2013-03-09 10:52:00,70.0,58.0,30.18,NNE,20,4.0,11.0,65,-99.99,,,-99.99,,2013-03-09 15:52:00,
2013-03-09 11:01:00,71.0,58.0,30.18,ESE,108,3.0,6.0,64,-99.99,,,-99.99,,2013-03-09 16:01:00,
2013-03-09 11:11:00,71.0,58.0,30.18,ESE,108,3.0,6.0,64,-99.99,,,-99.99,,2013-03-09 16:11:00,
2013-03-09 11:21:00,72.0,58.0,30.19,NNW,330,4.0,10.0,62,-99.99,,,-99.99,,2013-03-09 16:21:00,
2013-03-09 11:32:00,71.0,55.0,30.18,ENE,72,4.0,9.0,58,-99.99,,,-99.99,,2013-03-09 16:32:00,
2013-03-09 11:42:00,71.0,55.0,30.18,ENE,72,4.0,9.0,58,-99.99,,,-99.99,,2013-03-09 16:42:00,
2013-03-09 11:52:00,72.0,55.0,30.18,SSE,162,4.0,8.0,56,-99.99,,,-99.99,,2013-03-09 16:52:00,
2013-03-09 12:01:00,72.0,55.0,30.18,West,281,4.0,9.0,56,-99.99,,,-99.99,,2013-03-09 17:01:00,
2013-03-09 12:11:00,72.0,55.0,30.18,West,281,4.0,9.0,56,-99.99,,,-99.99,,2013-03-09 17:11:00,
2013-03-09 12:22:00,73.0,56.0,30.17,NW,316,4.0,11.0,56,-99.99,,,-99.99,,2013-03-09 17:22:00,
2013-03-09 12:32:00,72.0,55.0,30.16,North,7,5.0,18.0,56,-99.99,,,-99.99,,2013-03-09 17:32:00,
2013-03-09 12:42:00,72.0,55.0,30.16,North,7,5.0,18.0,56,-99.99,,,-99.99,,2013-03-09 17:42:00,
2013-03-09 12:52:00,72.0,55.0,30.16,SW,226,4.0,7.0,56,-99.99,,,-99.99,,2013-03-09 17:52:00,
2013-03-09 13:02:00,72.0,55.0,30.17,SE,127,3.0,11.0,55,-99.99,,,-99.99,,2013-03-09 18:02:00,
2013-03-09 13:11:00,72.0,55.0,30.17,SE,127,3.0,11.0,55,-99.99,,,-99.99,,2013-03-09 18:11:00,
2013-03-09 13:21:00,73.0,55.0,30.16,NW,309,4.0,14.0,54,-99.99,,,-99.99,,2013-03-09 18:21:00,
2013-03-09 13:32:00,73.0,55.0,30.16,SW,219,5.0,10.0,53,-99.99,,,-99.99,,2013-03-09 18:32:00,
2013-03-09 13:42:00,73.0,55.0,30.16,SW,219,5.0,10.0,53,-99.99,,,-99.99,,2013-03-09 18:42:00,
2013-03-09 13:52:00,73.0,56.0,30.14,North,4,4.0,10.0,55,-99.99,,,-99.99,,2013-03-09 18:52:00,
2013-03-09 14:01:00,73.0,56.0,30.14,NE,44,4.0,8.0,55,-99.99,,,-99.99,,2013-03-09 19:01:00,
2013-03-09 14:12:00,73.0,56.0,30.14,NE,44,4.0,8.0,55,-99.99,,,-99.99,,2013-03-09 19:12:00,
2013-03-09 14:22:00,71.0,55.0,30.14,NNW,328,6.0,15.0,58,-99.99,,,-99.99,,2013-03-09 19:22:00,
2013-03-09 14:32:00,71.0,55.0,30.14,South,170,5.0,11.0,57,-99.99,,,-99.99,,2013-03-09 19:32:00,
2013-03-09 14:42:00,71.0,55.0,30.14,South,170,5.0,11.0,57,-99.99,,,-99.99,,2013-03-09 19:42:00,
2013-03-09 14:51:00,71.0,56.0,30.14,NNE,30,6.0,13.0,59,-99.99,,,-99.99,,2013-03-09 19:51:00,
2013-03-09 15:01:00,71.0,56.0,30.14,SSW,198,5.0,12.0,59,-99.99,,,-99.99,,2013-03-09 20:01:00,
2013-03-09 15:11:00,71.0,56.0,30.14,SSW,198,5.0,12.0,59,-99.99,,,-99.99,,2013-03-09 20:11:00,
2013-03-09 15:22:00,71.0,55.0,30.13,WSW,250,4.0,17.0,58,-99.99,,,-99.99,,2013-03-09 20:22:00,
2013-03-09 15:32:00,71.0,55.0,30.12,ESE,110,6.0,17.0,58,-99.99,,,-99.99,,2013-03-09 20:32:00,
2013-03-09 15:42:00,71.0,55.0,30.12,ESE,110,6.0,17.0,58,-99.99,,,-99.99,,2013-03-09 20:42:00,
2013-03-09 15:52:00,71.0,55.0,30.12,East,100,5.0,14.0,58,-99.99,,,-99.99,,2013-03-09 20:52:00,
2013-03-09 16:02:00,71.0,55.0,30.12,SSE,153,6.0,14.0,58,-99.99,,,-99.99,,2013-03-09 21:02:00,
2013-03-09 16:12:00,71.0,55.0,30.12,SSE,153,6.0,14.0,58,-99.99,,,-99.99,,2013-03-09 21:12:00,
2013-03-09 16:22:00,70.0,55.0,30.12,SSW,211,6.0,12.0,59,-99.99,,,-99.99,,2013-03-09 21:22:00,
2013-03-09 16:32:00,69.0,55.0,30.13,South,169,5.0,12.0,60,-99.99,,,-99.99,,2013-03-09 21:32:00,
2013-03-09 16:42:00,69.0,55.0,30.13,South,169,5.0,12.0,60,-99.99,,,-99.99,,2013-03-09 21:42:00,
2013-03-09 16:52:00,69.0,55.0,30.12,North,353,5.0,18.0,60,-99.99,,,-99.99,,2013-03-09 21:52:00,
2013-03-09 17:01:00,69.0,55.0,30.12,SSE,165,5.0,11.0,61,-99.99,,,-99.99,,2013-03-09 22:01:00,
2013-03-09 17:11:00,69.0,55.0,30.12,SSE,165,5.0,11.0,61,-99.99,,,-99.99,,2013-03-09 22:11:00,
2013-03-09 17:21:00,69.0,55.0,30.12,NW,312,5.0,15.0,60,-99.99,,,-99.99,,2013-03-09 22:21:00,
2013-03-09 17:32:00,69.0,55.0,30.13,East,93,4.0,13.0,60,-99.99,,,-99.99,,2013-03-09 22:32:00,
2013-03-09 17:42:00,69.0,55.0,30.13,East,93,4.0,13.0,60,-99.99,,,-99.99,,2013-03-09 22:42:00,
2013-03-09 17:52:00,69.0,54.0,30.14,West,271,4.0,10.0,59,-99.99,,,-99.99,,2013-03-09 22:52:00,
2013-03-09 18:01:00,69.0,54.0,30.14,SW,218,5.0,12.0,59,-99.99,,,-99.99,,2013-03-09 23:01:00,
2013-03-09 18:11:00,69.0,54.0,30.14,SW,218,5.0,12.0,59,-99.99,,,-99.99,,2013-03-09 23:11:00,
2013-03-09 18:22:00,69.0,55.0,30.14,SW,214,4.0,9.0,61,-99.99,,,-99.99,,2013-03-09 23:22:00,
2013-03-09 18:32:00,68.0,54.0,30.14,SSW,205,6.0,16.0,62,-99.99,,,-99.99,,2013-03-09 23:32:00,
2013-03-09 18:42:00,68.0,54.0,30.14,SSW,205,6.0,16.0,62,-99.99,,,-99.99,,2013-03-09 23:42:00,
2013-03-09 18:52:00,68.0,54.0,30.13,North,7,7.0,18.0,61,-99.99,,,-99.99,,2013-03-09 23:52:00,
2013-03-09 19:01:00,68.0,54.0,30.14,NW,322,5.0,11.0,62,-99.99,,,-99.99,,2013-03-10 00:01:00,
2013-03-09 19:11:00,68.0,54.0,30.14,NW,322,5.0,11.0,62,-99.99,,,-99.99,,2013-03-10 00:11:00,
2013-03-09 19:22:00,68.0,54.0,30.14,North,353,6.0,20.0,60,-99.99,,,-99.99,,2013-03-10 00:22:00,
2013-03-09 19:32:00,68.0,55.0,30.14,ESE,103,7.0,23.0,63,-99.99,,,-99.99,,2013-03-10 00:32:00,
2013-03-09 19:42:00,68.0,55.0,30.14,ESE,103,7.0,23.0,63,-99.99,,,-99.99,,2013-03-10 00:42:00,
2013-03-09 19:52:00,68.0,54.0,30.14,North,1,8.0,26.0,62,-99.99,,,-99.99,,2013-03-10 00:52:00,
2013-03-09 20:01:00,68.0,54.0,30.15,North,356,7.0,18.0,61,-99.99,,,-99.99,,2013-03-10 01:01:00,
2013-03-09 20:11:00,68.0,54.0,30.15,North,356,7.0,18.0,61,-99.99,,,-99.99,,2013-03-10 01:11:00,
2013-03-09 20:21:00,68.0,54.0,30.15,NNE,25,9.0,21.0,61,-99.99,,,-99.99,,2013-03-10 01:21:00,
2013-03-09 20:32:00,68.0,54.0,30.16,NNE,31,7.0,15.0,61,-99.99,,,-99.99,,2013-03-10 01:32:00,
2013-03-09 20:42:00,68.0,54.0,30.16,NNE,31,7.0,15.0,61,-99.99,,,-99.99,,2013-03-10 01:42:00,
2013-03-09 20:52:00,68.0,53.0,30.16,North,0,7.0,22.0,58,-99.99,,,-99.99,,2013-03-10 01:52:00,
2013-03-09 21:01:00,68.0,53.0,30.17,SSW,193,7.0,12.0,59,-99.99,,,-99.99,,2013-03-10 02:01:00,
2013-03-09 21:11:00,68.0,53.0,30.17,SSW,193,7.0,12.0,59,-99.99,,,-99.99,,2013-03-10 02:11:00,
2013-03-09 21:22:00,68.0,53.0,30.17,NNE,20,7.0,17.0,58,-99.99,,,-99.99,,2013-03-10 02:22:00,
2013-03-09 21:32:00,68.0,54.0,30.17,NNE,18,6.0,16.0,60,-99.99,,,-99.99,,2013-03-10 02:32:00,
2013-03-09 21:42:00,68.0,54.0,30.17,NNE,18,6.0,16.0,60,-99.99,,,-99.99,,2013-03-10 02:42:00,
2013-03-09 21:52:00,68.0,54.0,30.18,NE,53,6.0,15.0,60,-99.99,,,-99.99,,2013-03-10 02:52:00,
2013-03-09 22:02:00,68.0,53.0,30.19,SSE,150,7.0,13.0,59,-99.99,,,-99.99,,2013-03-10 03:02:00,
2013-03-09 22:11:00,68.0,54.0,30.18,NNE,18,6.0,19.0,60,-99.99,,,-99.99,,2013-03-10 03:11:00,
2013-03-09 22:22:00,68.0,54.0,30.18,NNE,18,6.0,19.0,60,-99.99,,,-99.99,,2013-03-10 03:22:00,
2013-03-09 22:32:00,67.0,52.0,30.18,North,4,7.0,17.0,59,-99.99,,,-99.99,,2013-03-10 03:32:00,
2013-03-09 22:42:00,67.0,52.0,30.18,North,4,7.0,17.0,59,-99.99,,,-99.99,,2013-03-10 03:42:00,
2013-03-09 22:52:00,68.0,54.0,30.18,North,4,9.0,17.0,61,-99.99,,,-99.99,,2013-03-10 03:52:00,
2013-03-09 23:01:00,68.0,52.0,30.17,NNE,18,11.0,23.0,56,-99.99,,,-99.99,,2013-03-10 04:01:00,
2013-03-09 23:11:00,68.0,52.0,30.17,NNE,18,11.0,23.0,56,-99.99,,,-99.99,,2013-03-10 04:11:00,
2013-03-09 23:21:00,67.0,53.0,30.16,NE,35,9.0,17.0,61,-99.99,,,-99.99,,2013-03-10 04:21:00,
2013-03-09 23:32:00,67.0,53.0,30.16,NE,44,14.0,19.0,60,-99.99,,,-99.99,,2013-03-10 04:32:00,
2013-03-09 23:42:00,67.0,53.0,30.16,NE,44,14.0,19.0,60,-99.99,,,-99.99,,2013-03-10 04:42:00,
2013-03-09 23:52:00,67.0,52.0,30.15,NNE,20,19.0,24.0,59,-99.99,,,-99.99,,2013-03-10 04:52:00,